Time;durP1;ratioP1;P1;durP2;ratioP2;P2;SDS_P1;SDS_P2;PMS_P1;PMS_P2;Temp;Humidity;BMP_temperature;BMP_pressure;BME280_temperature;BME280_humidity;BME280_pressure;Samples;Min_cycle;Max_cycle;Signal;HPM_P1;HPM_P2
2022/11/19 00:01:42;;;;;;;408.90;365.73;;;;;;;-4.29;100.00;97308.81;7386212;19;20020;-53
2022/11/19 00:04:15;;;;;;;400.90;358.67;;;;;;;-4.20;100.00;97302.69;7390565;19;20014;-52
2022/11/19 00:06:49;;;;;;;403.08;360.90;;;;;;;-4.11;100.00;97308.50;7391310;19;20014;-50
2022/11/19 00:09:26;;;;;;;422.85;378.88;;;;;;;-4.49;100.00;97299.75;7390068;19;20023;-50
2022/11/19 00:14:47;;;;;;;424.35;379.45;;;;;;;-4.10;100.00;97325.59;7386426;19;20011;-52
2022/11/19 00:17:23;;;;;;;406.05;364.42;;;;;;;-4.08;100.00;97339.25;7392343;19;20011;-51
2022/11/19 00:19:56;;;;;;;408.20;365.13;;;;;;;-4.07;100.00;97337.50;7385517;19;20027;-51
2022/11/19 00:22:29;;;;;;;392.55;351.20;;;;;;;-4.32;100.00;97336.25;7391418;19;20021;-54
2022/11/19 00:25:02;;;;;;;400.17;359.10;;;;;;;-4.12;100.00;97337.63;7390280;19;20473;-52
2022/11/19 00:27:40;;;;;;;411.35;369.02;;;;;;;-4.17;100.00;97341.13;7392109;19;20011;-52
2022/11/19 00:30:18;;;;;;;404.45;362.05;;;;;;;-4.06;100.00;97331.53;7390191;19;20407;-50
2022/11/19 00:32:54;;;;;;;412.10;368.52;;;;;;;-4.03;100.00;97341.72;7382754;19;20017;-49
2022/11/19 00:35:27;;;;;;;392.02;350.58;;;;;;;-3.95;100.00;97335.59;7388177;19;20039;-52
2022/11/19 00:38:00;;;;;;;396.23;354.17;;;;;;;-3.85;100.00;97337.13;7389183;19;20010;-53
2022/11/19 00:40:33;;;;;;;387.55;346.05;;;;;;;-4.16;100.00;97341.06;7390414;19;20583;-53
2022/11/19 00:45:54;;;;;;;391.52;349.02;;;;;;;-3.89;100.00;97339.78;7390311;19;20014;-51
2022/11/19 00:48:28;;;;;;;383.35;342.30;;;;;;;-4.18;100.00;97341.97;7390422;19;20070;-57
2022/11/19 00:51:01;;;;;;;607.13;488.70;;;;;;;-4.30;100.00;97349.88;7383256;19;20021;-52
2022/11/19 00:53:36;;;;;;;390.40;348.38;;;;;;;-4.36;100.00;97358.53;7384476;19;20011;-50
2022/11/19 00:56:11;;;;;;;596.85;482.55;;;;;;;-4.21;100.00;97360.03;7384874;19;20359;-56
2022/11/19 00:58:48;;;;;;;635.78;503.60;;;;;;;-4.18;100.00;97359.94;7387908;19;20006;-54
2022/11/19 01:01:26;;;;;;;661.47;519.17;;;;;;;-4.13;100.00;97361.56;7389684;19;20017;-52
2022/11/19 01:04:00;;;;;;;672.65;526.90;;;;;;;-4.14;100.00;97359.03;7389300;19;20190;-52
2022/11/19 01:06:33;;;;;;;657.63;504.85;;;;;;;-4.28;100.00;97355.84;7389960;19;20027;-54
2022/11/19 01:09:06;;;;;;;483.95;412.13;;;;;;;-4.38;100.00;97346.59;7383400;19;20010;-56
2022/11/19 01:11:41;;;;;;;667.90;510.08;;;;;;;-4.32;100.00;97354.22;7388164;19;20102;-56
2022/11/19 01:14:14;;;;;;;656.45;508.13;;;;;;;-4.43;100.00;97356.09;7387260;19;20018;-52
2022/11/19 01:16:50;;;;;;;672.88;521.85;;;;;;;-4.47;100.00;97352.72;7387748;19;20297;-54
2022/11/19 01:19:23;;;;;;;377.65;336.50;;;;;;;-4.45;100.00;97355.25;7389191;19;20404;-54
2022/11/19 01:21:56;;;;;;;611.85;485.80;;;;;;;-4.41;100.00;97359.47;7383737;19;20012;-56
2022/11/19 01:24:30;;;;;;;648.65;496.25;;;;;;;-4.53;100.00;97359.66;7388460;19;20014;-56
2022/11/19 01:27:03;;;;;;;640.00;491.40;;;;;;;-4.64;100.00;97367.47;7389158;19;20462;-57
2022/11/19 01:29:36;;;;;;;407.60;362.60;;;;;;;-4.63;100.00;97369.22;7385778;19;20070;-53
2022/11/19 01:32:12;;;;;;;413.30;369.38;;;;;;;-4.56;100.00;97368.25;7388118;19;20008;-54
2022/11/19 01:34:49;;;;;;;541.13;446.98;;;;;;;-4.76;100.00;97370.22;7379734;19;20015;-57
2022/11/19 01:37:22;;;;;;;698.55;516.40;;;;;;;-4.62;100.00;97373.47;7386426;19;20366;-54
2022/11/19 01:39:55;;;;;;;714.90;521.80;;;;;;;-4.73;100.00;97374.47;7388039;19;20033;-56
2022/11/19 01:42:52;;;;;;;724.58;551.95;;;;;;;-4.56;100.00;97375.94;7388861;19;20003;-56
2022/11/19 01:45:35;;;;;;;717.58;539.22;;;;;;;-4.71;100.00;97370.19;7382288;19;20106;-54
2022/11/19 01:48:15;;;;;;;703.22;536.60;;;;;;;-4.74;100.00;97370.22;7387871;19;20032;-56
2022/11/19 01:50:53;;;;;;;698.00;532.05;;;;;;;-4.80;100.00;97368.59;7382063;19;20038;-56
2022/11/19 01:53:28;;;;;;;683.58;512.28;;;;;;;-4.61;100.00;97377.72;7389339;19;20010;-56
2022/11/19 01:56:03;;;;;;;479.20;408.08;;;;;;;-4.80;100.00;97372.84;7388679;19;20424;-53
2022/11/19 01:58:41;;;;;;;552.80;457.00;;;;;;;-4.60;100.00;97381.13;7387894;19;20019;-54
2022/11/19 02:01:21;;;;;;;433.38;373.88;;;;;;;-4.58;100.00;97376.81;7379838;19;20033;-52
2022/11/19 02:03:59;;;;;;;412.85;368.55;;;;;;;-4.44;100.00;97370.63;7386724;19;20011;-54
2022/11/19 02:06:34;;;;;;;404.77;362.20;;;;;;;-4.63;100.00;97373.47;7384553;19;20007;-56
2022/11/19 02:09:07;;;;;;;426.05;381.00;;;;;;;-4.45;100.00;97380.91;7379073;19;20334;-54
2022/11/19 02:12:00;;;;;;;407.90;364.05;;;;;;;-4.30;100.00;97378.09;7383805;19;20511;-54
2022/11/19 02:14:52;;;;;;;412.08;367.13;;;;;;;-4.33;100.00;97380.72;7382301;19;20006;-53
2022/11/19 02:17:40;;;;;;;420.60;376.08;;;;;;;-4.40;100.00;97372.28;7385535;19;20077;-54
2022/11/19 02:20:48;;;;;;;421.67;376.80;;;;;;;-4.38;100.00;97374.81;7385051;19;20022;-55
2022/11/19 02:24:03;;;;;;;440.17;394.13;;;;;;;-4.67;100.00;97380.38;7383653;19;20018;-55
2022/11/19 02:27:31;;;;;;;443.50;397.25;;;;;;;-4.83;100.00;97370.34;7384524;19;20544;-56
2022/11/19 02:30:18;;;;;;;407.90;364.75;;;;;;;-4.53;100.00;97386.13;7384538;19;20010;-55
2022/11/19 02:33:05;;;;;;;408.40;364.70;;;;;;;-4.51;100.00;97384.41;7383006;19;20062;-55
2022/11/19 02:36:02;;;;;;;402.20;358.35;;;;;;;-4.46;100.00;97399.75;7381507;19;20254;-49
2022/11/19 02:38:43;;;;;;;400.23;357.08;;;;;;;-4.41;100.00;97405.66;7385316;19;20094;-57
2022/11/19 02:41:35;;;;;;;404.25;359.88;;;;;;;-4.40;100.00;97412.47;7372476;19;20015;-53
2022/11/19 02:47:09;;;;;;;416.05;371.83;;;;;;;-4.48;100.00;97399.75;7381705;19;20014;-55
2022/11/19 02:49:46;;;;;;;436.98;390.75;;;;;;;-4.55;100.00;97405.00;7379413;19;20560;-54
2022/11/19 02:52:23;;;;;;;427.83;383.02;;;;;;;-4.46;100.00;97407.44;7383702;19;20011;-54
2022/11/19 02:54:57;;;;;;;413.92;369.48;;;;;;;-4.51;100.00;97415.19;7378288;19;20023;-53
2022/11/19 02:57:30;;;;;;;404.65;361.15;;;;;;;-4.50;100.00;97416.88;7383732;19;20025;-52
2022/11/19 03:06:03;;;;;;;403.75;360.52;;;;;;;-4.67;100.00;97425.69;7383855;19;20462;-55
2022/11/19 03:08:37;;;;;;;398.70;355.73;;;;;;;-4.69;100.00;97441.09;7384624;19;20505;-57
2022/11/19 03:11:18;;;;;;;455.33;385.83;;;;;;;-4.62;100.00;97444.41;7380894;19;20473;-55
2022/11/19 03:16:48;;;;;;;384.95;343.20;;;;;;;-4.57;100.00;97452.91;7385497;19;20501;-54
2022/11/19 03:19:39;;;;;;;386.42;344.52;;;;;;;-4.63;100.00;97455.56;7392159;19;20030;-50
2022/11/19 03:22:18;;;;;;;390.85;349.00;;;;;;;-4.61;100.00;97441.81;7392247;19;20469;-53
2022/11/19 03:24:56;;;;;;;459.20;405.05;;;;;;;-4.52;100.00;97449.41;7387389;19;20474;-51
2022/11/19 03:27:33;;;;;;;431.83;360.70;;;;;;;-4.29;100.00;97446.53;7391971;19;20010;-53
2022/11/19 03:30:08;;;;;;;410.75;366.48;;;;;;;-4.50;100.00;97457.09;7392433;19;20347;-49
2022/11/19 03:32:44;;;;;;;398.52;355.98;;;;;;;-4.31;100.00;97461.09;7391950;19;20014;-52
2022/11/19 03:35:25;;;;;;;395.27;353.60;;;;;;;-4.48;100.00;97465.59;7392693;19;20514;-53
2022/11/19 03:38:03;;;;;;;393.10;350.42;;;;;;;-4.60;100.00;97468.34;7391610;19;20019;-54
2022/11/19 03:40:39;;;;;;;395.23;353.25;;;;;;;-4.52;100.00;97463.94;7392991;19;20018;-54
2022/11/19 03:43:17;;;;;;;441.23;374.13;;;;;;;-4.68;100.00;97475.28;7387325;19;20015;-56
2022/11/19 03:45:52;;;;;;;402.73;358.25;;;;;;;-4.47;100.00;97463.03;7391378;19;20018;-53
2022/11/19 03:48:29;;;;;;;401.10;357.88;;;;;;;-4.57;100.00;97471.69;7387410;19;20089;-53
2022/11/19 03:51:10;;;;;;;405.70;362.38;;;;;;;-4.40;100.00;97476.59;7389530;19;20014;-55
2022/11/19 03:53:43;;;;;;;416.10;371.10;;;;;;;-4.64;100.00;97476.94;7384013;19;20714;-52
2022/11/19 03:56:22;;;;;;;397.25;354.52;;;;;;;-4.50;100.00;97475.88;7392009;19;20547;-53
2022/11/19 03:58:55;;;;;;;407.02;363.70;;;;;;;-4.73;100.00;97471.91;7389528;19;20014;-52
2022/11/19 04:01:28;;;;;;;411.10;365.85;;;;;;;-4.88;100.00;97479.78;7388936;19;20083;-52
2022/11/19 04:06:49;;;;;;;417.58;372.65;;;;;;;-4.86;100.00;97484.03;7386383;19;20406;-54
2022/11/19 04:09:23;;;;;;;412.92;368.33;;;;;;;-4.86;100.00;97496.00;7390112;19;20014;-52
2022/11/19 04:11:56;;;;;;;426.83;381.35;;;;;;;-4.99;100.00;97484.19;7384177;19;20022;-52
2022/11/19 04:14:29;;;;;;;407.35;363.10;;;;;;;-4.86;100.00;97503.72;7391130;19;20011;-53
2022/11/19 04:17:03;;;;;;;420.67;376.23;;;;;;;-4.91;100.00;97487.50;7391355;19;20027;-55
2022/11/19 04:19:36;;;;;;;650.78;506.90;;;;;;;-4.86;100.00;97503.72;7387834;19;20013;-55
2022/11/19 04:22:12;;;;;;;440.67;369.05;;;;;;;-5.07;100.00;97499.66;7391273;19;20034;-56
2022/11/19 04:24:45;;;;;;;437.20;391.02;;;;;;;-5.01;100.00;97499.56;7385872;19;20011;-49
2022/11/19 04:27:18;;;;;;;382.17;339.83;;;;;;;-5.06;100.00;97508.19;7389805;19;20477;-54
2022/11/19 04:29:51;;;;;;;418.17;373.80;;;;;;;-4.94;100.00;97513.19;7390748;19;20014;-52
2022/11/19 04:32:25;;;;;;;454.23;406.75;;;;;;;-5.11;100.00;97521.06;7384857;19;20010;-55
2022/11/19 04:34:58;;;;;;;516.58;454.48;;;;;;;-4.99;100.00;97513.25;7390689;19;20014;-53
2022/11/19 04:37:34;;;;;;;456.35;406.67;;;;;;;-5.11;100.00;97513.38;7386805;19;20006;-49
2022/11/19 04:40:07;;;;;;;436.08;391.02;;;;;;;-5.23;100.00;97502.41;7390748;19;20337;-54
2022/11/19 04:42:40;;;;;;;427.38;382.38;;;;;;;-4.97;100.00;97515.78;7390730;19;20013;-52
2022/11/19 04:45:15;;;;;;;451.35;403.83;;;;;;;-5.07;100.00;97519.31;7385630;19;20013;-54
2022/11/19 04:47:49;;;;;;;438.15;391.38;;;;;;;-5.17;100.00;97527.94;7387173;19;20549;-55
2022/11/19 04:50:22;;;;;;;454.98;404.67;;;;;;;-5.19;100.00;97529.69;7386380;19;20082;-50
2022/11/19 04:52:58;;;;;;;435.60;388.50;;;;;;;-5.17;100.00;97527.94;7387802;19;20470;-52
2022/11/19 04:55:31;;;;;;;432.50;386.08;;;;;;;-5.08;100.00;97535.56;7389711;19;20074;-51
2022/11/19 04:58:04;;;;;;;453.50;405.40;;;;;;;-5.12;100.00;97536.44;7384265;19;20027;-53
2022/11/19 05:00:37;;;;;;;398.05;354.35;;;;;;;-5.29;100.00;97530.63;7389464;19;20020;-50
2022/11/19 05:03:10;;;;;;;416.40;372.15;;;;;;;-5.09;100.00;97531.31;7387377;19;20018;-50
2022/11/19 05:05:43;;;;;;;405.83;362.10;;;;;;;-5.03;100.00;97541.47;7387067;19;20014;-56
2022/11/19 05:08:19;;;;;;;401.27;359.02;;;;;;;-5.19;100.00;97534.81;7389023;19;20070;-50
2022/11/19 05:10:52;;;;;;;416.23;371.23;;;;;;;-5.21;100.00;97531.41;7382968;19;20019;-50
2022/11/19 05:13:25;;;;;;;440.00;375.95;;;;;;;-5.15;100.00;97537.34;7387423;19;20023;-51
2022/11/19 05:15:58;;;;;;;405.20;361.65;;;;;;;-5.21;100.00;97542.50;7388914;19;20017;-49
2022/11/19 05:18:32;;;;;;;415.92;371.73;;;;;;;-5.19;100.00;97547.63;7389737;19;20019;-50
2022/11/19 05:21:05;;;;;;;408.80;365.48;;;;;;;-5.42;100.00;97555.50;7389990;19;20099;-56
2022/11/19 05:23:41;;;;;;;414.70;370.05;;;;;;;-5.24;100.00;97564.75;7385103;19;20046;-56
2022/11/19 05:26:14;;;;;;;748.75;543.38;;;;;;;-5.17;100.00;97568.94;7387894;19;20074;-55
2022/11/19 05:28:47;;;;;;;783.00;568.17;;;;;;;-5.47;100.00;97566.63;7390048;19;20019;-49
2022/11/19 05:31:20;;;;;;;783.72;563.83;;;;;;;-5.32;100.00;97572.50;7389085;19;20065;-57
2022/11/19 05:33:53;;;;;;;776.17;568.63;;;;;;;-5.28;100.00;97566.47;7388130;19;20469;-54
2022/11/19 05:36:27;;;;;;;806.67;584.28;;;;;;;-4.94;100.00;97567.88;7383259;19;20018;-55
2022/11/19 05:39:03;;;;;;;683.97;523.95;;;;;;;-4.91;100.00;97572.97;7388364;19;20470;-57
2022/11/19 05:41:36;;;;;;;678.30;521.80;;;;;;;-5.26;100.00;97574.16;7389452;19;20426;-55
2022/11/19 05:44:09;;;;;;;712.97;543.05;;;;;;;-5.24;100.00;97572.44;7387361;19;20334;-57
2022/11/19 05:46:42;;;;;;;707.78;532.83;;;;;;;-5.39;100.00;97582.78;7387369;19;20359;-56
2022/11/19 05:49:16;;;;;;;667.38;509.45;;;;;;;-5.38;100.00;97592.19;7382822;19;20020;-56
2022/11/19 05:51:49;;;;;;;667.45;510.45;;;;;;;-5.27;100.00;97603.22;7387476;19;20460;-53
2022/11/19 05:54:25;;;;;;;803.65;565.15;;;;;;;-5.08;100.00;97600.50;7386806;19;20470;-55
2022/11/19 05:56:58;;;;;;;806.47;567.60;;;;;;;-5.32;100.00;97610.06;7387997;19;20014;-52
2022/11/19 05:59:31;;;;;;;689.90;514.08;;;;;;;-5.41;100.00;97610.16;7388069;19;20010;-51
2022/11/19 06:02:04;;;;;;;731.60;538.10;;;;;;;-5.09;100.00;97626.13;7381754;19;20014;-50
2022/11/19 06:04:37;;;;;;;736.92;540.03;;;;;;;-4.95;100.00;97627.69;7385392;19;20478;-51
2022/11/19 06:07:11;;;;;;;716.92;521.00;;;;;;;-5.03;100.00;97623.50;7388777;19;20049;-53
2022/11/19 06:09:49;;;;;;;672.00;506.38;;;;;;;-5.03;100.00;97628.63;7386289;19;20015;-54
2022/11/19 06:12:23;;;;;;;681.15;514.28;;;;;;;-5.00;100.00;97619.22;7385995;19;20011;-54
2022/11/19 06:14:56;;;;;;;700.45;527.80;;;;;;;-5.09;100.00;97629.53;7382271;19;20015;-50
2022/11/19 06:17:29;;;;;;;612.53;479.80;;;;;;;-4.92;100.00;97635.38;7388381;19;20014;-53
2022/11/19 06:20:02;;;;;;;404.85;360.98;;;;;;;-4.71;100.00;97635.19;7384618;19;20010;-54
2022/11/19 06:22:36;;;;;;;427.02;374.33;;;;;;;-4.98;100.00;97632.84;7385449;19;20549;-52
2022/11/19 06:25:12;;;;;;;447.02;400.80;;;;;;;-5.09;100.00;97631.25;7387110;19;20011;-52
2022/11/19 06:27:45;;;;;;;450.50;403.45;;;;;;;-4.92;100.00;97635.38;7381684;19;20024;-51
2022/11/19 06:30:20;;;;;;;454.75;407.63;;;;;;;-4.76;100.00;97644.59;7384863;19;20010;-50
2022/11/19 06:32:53;;;;;;;439.10;392.80;;;;;;;-4.87;100.00;97643.84;7384582;19;20014;-53
2022/11/19 06:35:26;;;;;;;455.63;409.42;;;;;;;-4.66;100.00;97642.81;7385038;19;20014;-52
2022/11/19 06:37:59;;;;;;;412.15;367.75;;;;;;;-4.57;100.00;97653.00;7386963;19;20030;-57
2022/11/19 06:40:35;;;;;;;423.95;378.20;;;;;;;-5.12;100.00;97655.16;7381968;19;20025;-53
2022/11/19 06:43:08;;;;;;;398.08;355.35;;;;;;;-4.95;100.00;97661.03;7386614;19;20462;-55
2022/11/19 06:45:42;;;;;;;428.73;382.92;;;;;;;-5.00;100.00;97659.38;7381454;19;20010;-56
2022/11/19 06:48:15;;;;;;;454.10;407.90;;;;;;;-5.38;100.00;97661.38;7381287;19;20010;-54
2022/11/19 06:50:50;;;;;;;430.17;385.13;;;;;;;-4.98;100.00;97667.91;7384095;19;20014;-50
2022/11/19 06:53:24;;;;;;;422.65;377.15;;;;;;;-4.85;100.00;97661.78;7386383;19;20014;-53
2022/11/19 06:56:05;;;;;;;401.20;356.38;;;;;;;-4.89;100.00;97675.50;7392687;19;21035;-52
2022/11/19 06:58:39;;;;;;;403.92;359.75;;;;;;;-5.16;100.00;97680.84;7385024;19;20482;-51
2022/11/19 07:01:13;;;;;;;421.13;376.75;;;;;;;-4.67;100.00;97674.47;7387552;19;20018;-52
2022/11/19 07:03:46;;;;;;;424.80;380.60;;;;;;;-4.89;100.00;97668.69;7389080;19;20049;-51
2022/11/19 07:06:19;;;;;;;458.10;411.15;;;;;;;-4.93;100.00;97684.94;7384558;19;20014;-56
2022/11/19 07:08:52;;;;;;;434.02;388.92;;;;;;;-4.76;100.00;97687.38;7387564;19;20456;-53
2022/11/19 07:11:28;;;;;;;432.88;388.17;;;;;;;-4.88;100.00;97693.44;7387587;19;20018;-49
2022/11/19 07:14:03;;;;;;;425.65;381.05;;;;;;;-4.91;100.00;97685.78;7385166;19;20007;-54
2022/11/19 07:16:38;;;;;;;510.23;454.90;;;;;;;-4.44;100.00;97695.59;7388957;19;20015;-50
2022/11/19 07:19:13;;;;;;;463.10;414.80;;;;;;;-4.41;100.00;97691.31;7384875;19;20011;-55
2022/11/19 07:21:46;;;;;;;553.15;491.98;;;;;;;-4.32;100.00;97683.50;7389001;19;20018;-54
2022/11/19 07:24:22;;;;;;;543.00;483.85;;;;;;;-4.45;100.00;97692.22;7386633;19;20098;-56
2022/11/19 07:26:58;;;;;;;547.65;487.60;;;;;;;-4.81;100.00;97692.53;7390729;19;20007;-52
2022/11/19 07:29:31;;;;;;;558.10;497.27;;;;;;;-4.58;100.00;97700.00;7390463;19;20031;-58
2022/11/19 07:32:04;;;;;;;544.70;487.17;;;;;;;-4.59;100.00;97709.44;7385659;19;20038;-56
2022/11/19 07:34:37;;;;;;;546.35;486.58;;;;;;;-4.62;100.00;97711.16;7388450;19;20497;-54
2022/11/19 07:37:11;;;;;;;567.28;503.55;;;;;;;-5.39;100.00;97716.00;7383879;19;20014;-55
2022/11/19 07:39:45;;;;;;;553.60;489.55;;;;;;;-4.82;100.00;97705.38;7390766;19;20011;-54
2022/11/19 07:45:14;;;;;;;515.03;460.08;;;;;;;-4.33;100.00;97704.06;7390470;19;20486;-55
2022/11/19 07:47:48;;;;;;;564.92;503.42;;;;;;;-4.48;100.00;97706.75;7387798;19;20015;-51
2022/11/19 07:50:21;;;;;;;460.55;413.65;;;;;;;-4.27;100.00;97706.56;7390014;19;21210;-56
2022/11/19 07:52:54;;;;;;;452.00;405.90;;;;;;;-4.01;100.00;97705.44;7390630;19;20014;-53
2022/11/19 07:55:27;;;;;;;467.00;419.63;;;;;;;-4.12;100.00;97698.69;7386430;19;20014;-51
2022/11/19 07:58:03;;;;;;;552.28;478.70;;;;;;;-4.29;100.00;97704.00;7390357;19;20006;-53
2022/11/19 08:00:36;;;;;;;588.55;524.20;;;;;;;-4.26;100.00;97698.00;7389630;19;20019;-53
2022/11/19 08:03:10;;;;;;;563.67;495.77;;;;;;;-4.09;100.00;97709.78;7383912;19;20507;-55
2022/11/19 08:05:45;;;;;;;550.58;489.67;;;;;;;-4.41;100.00;97708.41;7385686;19;21227;-55
2022/11/19 08:08:18;;;;;;;560.40;490.95;;;;;;;-4.52;100.00;97717.91;7384087;19;20015;-56
2022/11/19 08:10:51;;;;;;;545.40;483.88;;;;;;;-4.25;100.00;97722.78;7388978;19;20082;-52
2022/11/19 08:13:27;;;;;;;542.45;479.73;;;;;;;-4.04;100.00;97717.44;7387768;19;20011;-56
2022/11/19 08:16:05;;;;;;;536.47;469.45;;;;;;;-4.35;100.00;97718.63;7388894;19;20029;-57
2022/11/19 08:18:36;;;;;;;534.60;475.35;;;;;;;-4.46;100.00;97717.88;7388940;19;20372;-53
2022/11/19 08:21:10;;;;;;;542.08;481.42;;;;;;;-4.21;100.00;97716.78;7382841;19;20011;-52
2022/11/19 08:23:45;;;;;;;517.30;461.38;;;;;;;-4.18;100.00;97709.03;7389156;19;20472;-54
2022/11/19 08:26:18;;;;;;;452.98;406.90;;;;;;;-4.10;100.00;97702.09;7386334;19;20007;-50
2022/11/19 08:28:54;;;;;;;459.13;412.38;;;;;;;-4.07;100.00;97707.19;7387039;19;20461;-56
2022/11/19 08:31:27;;;;;;;445.02;399.48;;;;;;;-4.29;100.00;97726.25;7390795;19;20010;-57
2022/11/19 08:34:00;;;;;;;481.58;433.75;;;;;;;-4.51;100.00;97717.03;7382268;19;20086;-55
2022/11/19 08:36:34;;;;;;;470.38;423.42;;;;;;;-4.56;100.00;97717.13;7388004;19;20015;-56
2022/11/19 08:39:07;;;;;;;458.13;412.17;;;;;;;-4.40;100.00;97708.41;7387905;19;20011;-52
2022/11/19 08:44:29;;;;;;;443.67;398.38;;;;;;;-4.27;100.00;97721.97;7384906;19;20014;-55
2022/11/19 08:47:02;;;;;;;450.90;404.38;;;;;;;-4.49;100.00;97721.31;7386504;19;20014;-54
2022/11/19 08:49:35;;;;;;;479.48;431.45;;;;;;;-4.61;100.00;97725.72;7385911;19;20465;-55
2022/11/19 08:52:13;;;;;;;493.98;445.38;;;;;;;-4.57;100.00;97728.22;7381427;19;20456;-51
2022/11/19 08:54:46;;;;;;;458.73;412.92;;;;;;;-4.46;100.00;97740.97;7384847;19;20070;-53
2022/11/19 08:57:19;;;;;;;476.38;429.83;;;;;;;-4.48;100.00;97738.41;7385377;19;20018;-55
2022/11/19 08:59:55;;;;;;;474.20;426.88;;;;;;;-4.51;100.00;97732.44;7388309;19;20014;-55
2022/11/19 09:02:28;;;;;;;465.90;418.75;;;;;;;-4.27;100.00;97739.94;7390320;19;20011;-55
2022/11/19 09:05:01;;;;;;;438.70;391.40;;;;;;;-4.43;100.00;97728.94;7383650;19;20462;-55
2022/11/19 09:07:34;;;;;;;441.25;394.45;;;;;;;-4.50;100.00;97736.72;7389875;19;20007;-55
2022/11/19 09:10:07;;;;;;;472.95;425.10;;;;;;;-4.69;100.00;97741.16;7387178;19;20035;-52
2022/11/19 09:12:41;;;;;;;445.30;399.23;;;;;;;-5.13;100.00;97744.91;7387268;19;20022;-56
2022/11/19 09:15:17;;;;;;;436.83;390.95;;;;;;;-4.64;100.00;97736.81;7383122;19;20082;-55
2022/11/19 09:17:50;;;;;;;467.55;418.02;;;;;;;-4.26;100.00;97744.19;7381537;19;20450;-54
2022/11/19 09:20:23;;;;;;;451.30;405.73;;;;;;;-4.54;100.00;97738.44;7387381;19;20015;-55
2022/11/19 09:22:57;;;;;;;453.92;406.80;;;;;;;-4.43;100.00;97733.25;7386187;19;20038;-54
2022/11/19 09:25:31;;;;;;;445.50;400.17;;;;;;;-4.48;100.00;97742.69;7387041;19;20567;-53
2022/11/19 09:28:05;;;;;;;463.95;416.95;;;;;;;-4.69;100.00;97747.97;7385371;19;20618;-51
2022/11/19 09:30:41;;;;;;;465.95;417.85;;;;;;;-4.67;100.00;97726.63;7380791;19;20038;-51
2022/11/19 09:33:14;;;;;;;440.42;393.70;;;;;;;-4.90;100.00;97748.16;7386917;19;20010;-56
2022/11/19 09:35:47;;;;;;;460.30;413.90;;;;;;;-4.85;100.00;97747.28;7379139;19;20010;-55
2022/11/19 09:38:20;;;;;;;470.73;422.70;;;;;;;-4.84;100.00;97735.28;7388431;19;20015;-52
2022/11/19 09:40:56;;;;;;;498.40;448.30;;;;;;;-5.18;100.00;97757.75;7385776;19;20462;-51
2022/11/19 09:43:46;;;;;;;501.13;451.00;;;;;;;-4.97;100.00;97756.75;7382628;19;20017;-54
2022/11/19 09:46:30;;;;;;;443.17;396.38;;;;;;;-4.49;100.00;97746.13;7387388;19;20011;-51
2022/11/19 09:49:08;;;;;;;470.05;421.52;;;;;;;-4.90;100.00;97759.25;7387782;19;20034;-50
2022/11/19 09:51:45;;;;;;;477.88;430.10;;;;;;;-4.56;100.00;97742.78;7386382;19;20038;-51
2022/11/19 09:54:22;;;;;;;427.02;376.85;;;;;;;-4.38;100.00;97728.91;7384717;19;20082;-50
2022/11/19 09:56:59;;;;;;;418.38;365.40;;;;;;;-4.26;100.00;97746.75;7387893;19;20018;-50
2022/11/19 09:59:38;;;;;;;467.65;418.65;;;;;;;-4.16;100.00;97740.69;7382208;19;20071;-49
2022/11/19 10:02:22;;;;;;;467.98;419.52;;;;;;;-4.50;100.00;97739.28;7387500;19;20015;-49
2022/11/19 10:04:57;;;;;;;435.55;388.40;;;;;;;-4.26;100.00;97739.06;7383566;19;20020;-49
2022/11/19 10:07:44;;;;;;;455.33;407.98;;;;;;;-4.22;100.00;97733.88;7387593;19;20011;-49
2022/11/19 10:10:35;;;;;;;428.52;381.58;;;;;;;-4.19;100.00;97740.69;7383206;19;20115;-49
2022/11/19 10:13:42;;;;;;;442.55;395.90;;;;;;;-3.98;100.00;97737.91;7385293;19;20038;-49
2022/11/19 10:16:33;;;;;;;462.17;412.38;;;;;;;-3.81;100.00;97741.13;7385855;19;20015;-49
2022/11/19 10:19:22;;;;;;;463.80;415.30;;;;;;;-3.83;99.55;97733.44;7386675;19;20014;-46
2022/11/19 10:22:04;;;;;;;473.55;422.55;;;;;;;-4.28;99.63;97749.34;7382308;19;20007;-48
2022/11/19 10:24:46;;;;;;;464.05;414.77;;;;;;;-4.48;96.84;97740.97;7386227;19;20082;-59
2022/11/19 10:27:28;;;;;;;484.85;434.15;;;;;;;-4.17;95.75;97741.56;7380614;19;20399;-59
2022/11/19 10:30:07;;;;;;;460.90;413.08;;;;;;;-4.37;92.47;97740.88;7386358;19;20006;-59
2022/11/19 10:32:45;;;;;;;480.40;430.10;;;;;;;-3.98;92.60;97740.47;7381115;19;20028;-59
2022/11/19 10:35:28;;;;;;;462.55;413.27;;;;;;;-3.63;91.07;97743.50;7384807;19;20107;-59
2022/11/19 10:38:03;;;;;;;473.77;422.98;;;;;;;-3.80;88.95;97743.69;7379084;19;20030;-48
2022/11/19 10:40:43;;;;;;;442.65;395.40;;;;;;;-4.23;88.75;97739.03;7381957;19;20023;-51
2022/11/19 10:43:24;;;;;;;475.27;425.42;;;;;;;-4.50;89.73;97741.88;7372763;19;20331;-52
2022/11/19 10:45:58;;;;;;;453.58;405.35;;;;;;;-4.07;89.81;97748.25;7384285;19;20363;-50
2022/11/19 10:48:41;;;;;;;480.98;429.75;;;;;;;-4.29;87.84;97736.50;7379598;19;20014;-55
2022/11/19 10:51:28;;;;;;;459.13;409.77;;;;;;;-4.21;86.17;97739.88;7381736;19;20006;-56
2022/11/19 10:54:05;;;;;;;492.83;443.02;;;;;;;-3.80;83.68;97746.25;7377155;19;20031;-50
2022/11/19 10:56:44;;;;;;;432.73;386.10;;;;;;;-3.84;81.18;97744.59;7384463;19;20006;-45
2022/11/19 10:59:21;;;;;;;449.02;400.85;;;;;;;-3.97;82.31;97753.31;7379304;19;20014;-57
2022/11/19 11:01:59;;;;;;;450.42;402.83;;;;;;;-3.92;81.58;97741.25;7381271;19;20018;-48
2022/11/19 11:04:34;;;;;;;460.85;412.92;;;;;;;-3.58;81.98;97741.72;7382010;19;20678;-56
2022/11/19 11:07:11;;;;;;;451.15;403.67;;;;;;;-3.21;80.75;97737.81;7382228;19;20011;-48
2022/11/19 11:09:45;;;;;;;439.25;393.02;;;;;;;-3.08;81.56;97724.75;7382434;19;20007;-51
2022/11/19 11:15:20;;;;;;;460.08;412.75;;;;;;;-3.09;83.90;97745.34;7380235;19;20006;-50
2022/11/19 11:18:05;;;;;;;459.05;411.75;;;;;;;-3.52;81.79;97747.63;7383249;19;20014;-57
2022/11/19 11:20:39;;;;;;;468.65;419.42;;;;;;;-3.25;82.30;97736.16;7379325;19;20012;-63
2022/11/19 11:23:16;;;;;;;430.05;383.77;;;;;;;-3.79;82.57;97744.53;7384183;19;20015;-57
2022/11/19 11:26:04;;;;;;;431.38;385.00;;;;;;;-3.72;84.30;97741.03;7381839;19;20022;-57
2022/11/19 11:28:38;;;;;;;456.67;409.42;;;;;;;-3.86;83.95;97742.91;7380798;19;20014;-53
2022/11/19 11:31:16;;;;;;;450.92;403.38;;;;;;;-3.82;83.06;97736.88;7384081;19;20352;-58
2022/11/19 11:34:01;;;;;;;459.23;411.65;;;;;;;-3.86;81.25;97737.78;7382126;19;20014;-56
2022/11/19 11:36:37;;;;;;;449.33;401.80;;;;;;;-3.70;81.70;97731.59;7383504;19;20017;-55
2022/11/19 11:39:28;;;;;;;458.38;410.63;;;;;;;-3.50;80.15;97739.91;7387233;19;20019;-53
2022/11/19 11:42:02;;;;;;;458.83;411.00;;;;;;;-3.47;79.53;97737.31;7384146;19;20033;-67
2022/11/19 11:44:39;;;;;;;462.88;415.08;;;;;;;-3.35;80.63;97721.72;7388678;19;20034;-60
2022/11/19 11:47:20;;;;;;;429.58;383.42;;;;;;;-3.57;78.02;97730.59;7387046;19;20022;-64
2022/11/19 11:50:08;;;;;;;426.38;380.08;;;;;;;-3.68;78.27;97737.56;7386822;19;20044;-56
2022/11/19 11:52:46;;;;;;;428.15;381.63;;;;;;;-3.76;78.16;97732.50;7381379;19;20457;-59
2022/11/19 11:55:38;;;;;;;429.52;383.05;;;;;;;-3.75;79.38;97734.22;7386530;19;20018;-58
2022/11/19 11:58:33;;;;;;;456.65;409.30;;;;;;;-3.53;79.81;97725.38;7382766;19;20006;-60
2022/11/19 12:01:20;;;;;;;438.95;393.40;;;;;;;-3.58;79.50;97721.19;7387849;19;20013;-59
2022/11/19 12:04:01;;;;;;;427.35;381.83;;;;;;;-3.23;77.63;97721.53;7388398;19;20006;-57
2022/11/19 12:06:46;;;;;;;424.13;378.52;;;;;;;-3.61;78.07;97734.06;7383789;19;20040;-68